sensor_id;sensor_type;location;lat;lon;timestamp;P1;durP1;ratioP1;P2;durP2;ratioP2
8312;SDS011;4194;43.408;24.626;2023-07-20T00:13:45;5.03;;;2.50;;
8312;SDS011;4194;43.408;24.626;2023-07-20T00:16:36;7.03;;;2.40;;
8312;SDS011;4194;43.408;24.626;2023-07-20T00:19:17;9.13;;;2.53;;
8312;SDS011;4194;43.408;24.626;2023-07-20T00:21:42;4.93;;;2.43;;
8312;SDS011;4194;43.408;24.626;2023-07-20T00:24:45;4.53;;;2.30;;
8312;SDS011;4194;43.408;24.626;2023-07-20T00:27:25;6.30;;;2.13;;
8312;SDS011;4194;43.408;24.626;2023-07-20T00:29:54;8.80;;;2.07;;
8312;SDS011;4194;43.408;24.626;2023-07-20T00:32:20;8.57;;;2.17;;
8312;SDS011;4194;43.408;24.626;2023-07-20T00:34:51;9.43;;;2.40;;
8312;SDS011;4194;43.408;24.626;2023-07-20T00:37:53;8.60;;;2.63;;
8312;SDS011;4194;43.408;24.626;2023-07-20T00:46:47;5.17;;;2.20;;
8312;SDS011;4194;43.408;24.626;2023-07-20T00:49:16;7.37;;;2.40;;
8312;SDS011;4194;43.408;24.626;2023-07-20T00:51:47;5.67;;;2.40;;
8312;SDS011;4194;43.408;24.626;2023-07-20T00:54:14;8.63;;;2.67;;
8312;SDS011;4194;43.408;24.626;2023-07-20T00:56:40;9.30;;;2.67;;
8312;SDS011;4194;43.408;24.626;2023-07-20T00:59:06;5.93;;;2.40;;
8312;SDS011;4194;43.408;24.626;2023-07-20T01:01:32;9.27;;;2.47;;
8312;SDS011;4194;43.408;24.626;2023-07-20T01:03:58;7.00;;;2.70;;
8312;SDS011;4194;43.408;24.626;2023-07-20T01:06:29;16.87;;;3.10;;
8312;SDS011;4194;43.408;24.626;2023-07-20T01:14:24;8.93;;;2.50;;
8312;SDS011;4194;43.408;24.626;2023-07-20T01:16:51;10.87;;;3.67;;
8312;SDS011;4194;43.408;24.626;2023-07-20T01:19:19;9.93;;;3.03;;
8312;SDS011;4194;43.408;24.626;2023-07-20T01:21:51;7.73;;;3.00;;
8312;SDS011;4194;43.408;24.626;2023-07-20T01:24:51;9.93;;;3.67;;
8312;SDS011;4194;43.408;24.626;2023-07-20T01:30:55;5.53;;;3.10;;
8312;SDS011;4194;43.408;24.626;2023-07-20T01:33:28;8.87;;;3.30;;
8312;SDS011;4194;43.408;24.626;2023-07-20T01:35:58;10.67;;;3.20;;
8312;SDS011;4194;43.408;24.626;2023-07-20T01:38:26;12.40;;;2.80;;
8312;SDS011;4194;43.408;24.626;2023-07-20T01:40:52;6.07;;;2.87;;
8312;SDS011;4194;43.408;24.626;2023-07-20T01:43:18;8.33;;;2.70;;
8312;SDS011;4194;43.408;24.626;2023-07-20T01:45:44;8.50;;;2.77;;
8312;SDS011;4194;43.408;24.626;2023-07-20T01:48:10;6.20;;;2.90;;
8312;SDS011;4194;43.408;24.626;2023-07-20T01:50:36;7.87;;;2.97;;
8312;SDS011;4194;43.408;24.626;2023-07-20T01:53:02;8.07;;;3.10;;
8312;SDS011;4194;43.408;24.626;2023-07-20T01:55:27;6.63;;;2.97;;
8312;SDS011;4194;43.408;24.626;2023-07-20T01:57:54;7.13;;;3.13;;
8312;SDS011;4194;43.408;24.626;2023-07-20T02:00:20;13.40;;;4.47;;
8312;SDS011;4194;43.408;24.626;2023-07-20T02:02:49;10.27;;;4.67;;
8312;SDS011;4194;43.408;24.626;2023-07-20T02:05:15;8.83;;;5.83;;
8312;SDS011;4194;43.408;24.626;2023-07-20T02:07:41;9.53;;;6.27;;
8312;SDS011;4194;43.408;24.626;2023-07-20T02:10:07;15.47;;;6.73;;
8312;SDS011;4194;43.408;24.626;2023-07-20T02:12:33;10.10;;;4.63;;
8312;SDS011;4194;43.408;24.626;2023-07-20T02:14:59;15.87;;;4.00;;
8312;SDS011;4194;43.408;24.626;2023-07-20T02:17:25;5.90;;;3.67;;
8312;SDS011;4194;43.408;24.626;2023-07-20T02:19:52;9.30;;;3.80;;
8312;SDS011;4194;43.408;24.626;2023-07-20T02:22:18;11.50;;;4.00;;
8312;SDS011;4194;43.408;24.626;2023-07-20T02:24:44;9.73;;;4.20;;
8312;SDS011;4194;43.408;24.626;2023-07-20T02:27:09;7.27;;;3.20;;
8312;SDS011;4194;43.408;24.626;2023-07-20T02:29:35;6.30;;;3.10;;
8312;SDS011;4194;43.408;24.626;2023-07-20T02:32:01;11.90;;;3.47;;
8312;SDS011;4194;43.408;24.626;2023-07-20T02:34:27;9.33;;;3.20;;
8312;SDS011;4194;43.408;24.626;2023-07-20T02:36:53;6.93;;;3.43;;
8312;SDS011;4194;43.408;24.626;2023-07-20T02:39:21;7.33;;;3.10;;
8312;SDS011;4194;43.408;24.626;2023-07-20T02:41:47;11.97;;;3.57;;
8312;SDS011;4194;43.408;24.626;2023-07-20T02:44:16;8.25;;;3.30;;
8312;SDS011;4194;43.408;24.626;2023-07-20T02:46:41;11.73;;;3.90;;
8312;SDS011;4194;43.408;24.626;2023-07-20T02:49:07;12.60;;;3.77;;
8312;SDS011;4194;43.408;24.626;2023-07-20T02:51:33;12.27;;;3.37;;
8312;SDS011;4194;43.408;24.626;2023-07-20T02:53:58;11.10;;;3.13;;
8312;SDS011;4194;43.408;24.626;2023-07-20T02:56:24;5.93;;;3.37;;
8312;SDS011;4194;43.408;24.626;2023-07-20T02:58:50;10.90;;;3.40;;
8312;SDS011;4194;43.408;24.626;2023-07-20T03:01:16;9.53;;;3.07;;
8312;SDS011;4194;43.408;24.626;2023-07-20T03:03:42;6.47;;;2.97;;
8312;SDS011;4194;43.408;24.626;2023-07-20T03:06:11;11.10;;;2.90;;
8312;SDS011;4194;43.408;24.626;2023-07-20T03:08:38;9.13;;;2.83;;
8312;SDS011;4194;43.408;24.626;2023-07-20T03:11:03;8.67;;;2.97;;
8312;SDS011;4194;43.408;24.626;2023-07-20T03:13:29;7.00;;;2.40;;
8312;SDS011;4194;43.408;24.626;2023-07-20T03:15:55;7.57;;;3.77;;
8312;SDS011;4194;43.408;24.626;2023-07-20T03:18:20;8.77;;;3.50;;
8312;SDS011;4194;43.408;24.626;2023-07-20T03:20:46;10.33;;;3.27;;
8312;SDS011;4194;43.408;24.626;2023-07-20T03:23:13;9.20;;;3.40;;
8312;SDS011;4194;43.408;24.626;2023-07-20T03:25:40;7.83;;;3.43;;
8312;SDS011;4194;43.408;24.626;2023-07-20T03:28:06;11.60;;;3.93;;
8312;SDS011;4194;43.408;24.626;2023-07-20T03:30:32;8.30;;;3.90;;
8312;SDS011;4194;43.408;24.626;2023-07-20T03:32:59;7.77;;;3.10;;
8312;SDS011;4194;43.408;24.626;2023-07-20T03:35:25;9.73;;;3.87;;
8312;SDS011;4194;43.408;24.626;2023-07-20T03:37:51;8.63;;;3.30;;
8312;SDS011;4194;43.408;24.626;2023-07-20T03:40:17;6.40;;;2.90;;
8312;SDS011;4194;43.408;24.626;2023-07-20T03:42:43;7.93;;;3.50;;
8312;SDS011;4194;43.408;24.626;2023-07-20T03:45:09;5.10;;;3.20;;
8312;SDS011;4194;43.408;24.626;2023-07-20T03:47:35;12.50;;;4.13;;
8312;SDS011;4194;43.408;24.626;2023-07-20T03:50:00;9.83;;;3.50;;
8312;SDS011;4194;43.408;24.626;2023-07-20T03:52:26;11.50;;;3.20;;
8312;SDS011;4194;43.408;24.626;2023-07-20T03:54:52;13.20;;;3.70;;
8312;SDS011;4194;43.408;24.626;2023-07-20T03:57:18;8.97;;;3.00;;
8312;SDS011;4194;43.408;24.626;2023-07-20T03:59:44;9.53;;;3.10;;
8312;SDS011;4194;43.408;24.626;2023-07-20T04:02:11;7.37;;;3.17;;
8312;SDS011;4194;43.408;24.626;2023-07-20T04:04:37;10.60;;;3.30;;
8312;SDS011;4194;43.408;24.626;2023-07-20T04:07:03;8.87;;;3.53;;
8312;SDS011;4194;43.408;24.626;2023-07-20T04:09:29;6.17;;;3.80;;
8312;SDS011;4194;43.408;24.626;2023-07-20T04:11:56;7.57;;;2.73;;
8312;SDS011;4194;43.408;24.626;2023-07-20T04:14:22;10.30;;;3.43;;
8312;SDS011;4194;43.408;24.626;2023-07-20T04:16:47;7.83;;;3.50;;
8312;SDS011;4194;43.408;24.626;2023-07-20T04:19:13;6.20;;;3.00;;
8312;SDS011;4194;43.408;24.626;2023-07-20T04:21:40;12.73;;;3.07;;
8312;SDS011;4194;43.408;24.626;2023-07-20T04:24:06;8.43;;;3.00;;
8312;SDS011;4194;43.408;24.626;2023-07-20T04:26:32;8.67;;;3.00;;
8312;SDS011;4194;43.408;24.626;2023-07-20T04:28:58;6.97;;;2.53;;
8312;SDS011;4194;43.408;24.626;2023-07-20T04:31:24;5.93;;;2.50;;
8312;SDS011;4194;43.408;24.626;2023-07-20T04:33:50;7.43;;;3.63;;
8312;SDS011;4194;43.408;24.626;2023-07-20T04:36:16;6.80;;;2.60;;
8312;SDS011;4194;43.408;24.626;2023-07-20T04:38:47;8.77;;;2.67;;
8312;SDS011;4194;43.408;24.626;2023-07-20T04:41:13;7.43;;;2.80;;
8312;SDS011;4194;43.408;24.626;2023-07-20T04:43:42;7.57;;;2.43;;
8312;SDS011;4194;43.408;24.626;2023-07-20T07:36:06;9.77;;;3.33;;
8312;SDS011;4194;43.408;24.626;2023-07-20T07:38:32;4.90;;;3.10;;
8312;SDS011;4194;43.408;24.626;2023-07-20T07:40:58;4.17;;;3.00;;
8312;SDS011;4194;43.408;24.626;2023-07-20T07:43:24;10.57;;;4.03;;
8312;SDS011;4194;43.408;24.626;2023-07-20T07:45:53;7.53;;;3.10;;
8312;SDS011;4194;43.408;24.626;2023-07-20T07:48:19;7.37;;;3.47;;
8312;SDS011;4194;43.408;24.626;2023-07-20T07:50:46;6.73;;;2.63;;
8312;SDS011;4194;43.408;24.626;2023-07-20T07:53:12;5.70;;;2.93;;
8312;SDS011;4194;43.408;24.626;2023-07-20T07:55:37;7.00;;;2.73;;
8312;SDS011;4194;43.408;24.626;2023-07-20T07:58:03;6.67;;;3.00;;
8312;SDS011;4194;43.408;24.626;2023-07-20T08:00:29;7.53;;;2.97;;
8312;SDS011;4194;43.408;24.626;2023-07-20T08:02:54;6.00;;;3.07;;
8312;SDS011;4194;43.408;24.626;2023-07-20T08:05:20;5.43;;;2.73;;
8312;SDS011;4194;43.408;24.626;2023-07-20T08:07:46;7.20;;;3.00;;
8312;SDS011;4194;43.408;24.626;2023-07-20T08:10:11;4.03;;;2.53;;
8312;SDS011;4194;43.408;24.626;2023-07-20T08:12:38;5.63;;;2.40;;
8312;SDS011;4194;43.408;24.626;2023-07-20T08:15:03;4.47;;;3.00;;
8312;SDS011;4194;43.408;24.626;2023-07-20T08:17:29;3.40;;;2.50;;
8312;SDS011;4194;43.408;24.626;2023-07-20T08:19:55;4.80;;;2.90;;
8312;SDS011;4194;43.408;24.626;2023-07-20T08:22:21;5.10;;;3.03;;
8312;SDS011;4194;43.408;24.626;2023-07-20T08:24:46;7.90;;;3.43;;
8312;SDS011;4194;43.408;24.626;2023-07-20T08:27:12;9.37;;;3.60;;
8312;SDS011;4194;43.408;24.626;2023-07-20T08:29:38;7.47;;;3.60;;
8312;SDS011;4194;43.408;24.626;2023-07-20T08:32:04;4.57;;;3.40;;
8312;SDS011;4194;43.408;24.626;2023-07-20T08:34:31;5.90;;;3.57;;
8312;SDS011;4194;43.408;24.626;2023-07-20T08:36:57;10.50;;;3.73;;
8312;SDS011;4194;43.408;24.626;2023-07-20T08:39:23;6.37;;;3.20;;
8312;SDS011;4194;43.408;24.626;2023-07-20T08:41:49;4.13;;;3.00;;
8312;SDS011;4194;43.408;24.626;2023-07-20T08:44:16;6.63;;;3.30;;
8312;SDS011;4194;43.408;24.626;2023-07-20T08:46:42;8.23;;;4.07;;
8312;SDS011;4194;43.408;24.626;2023-07-20T08:49:08;5.87;;;3.73;;
8312;SDS011;4194;43.408;24.626;2023-07-20T08:51:35;4.70;;;3.40;;
8312;SDS011;4194;43.408;24.626;2023-07-20T08:54:01;7.60;;;3.30;;
8312;SDS011;4194;43.408;24.626;2023-07-20T08:56:27;6.53;;;3.17;;
8312;SDS011;4194;43.408;24.626;2023-07-20T08:58:54;10.20;;;3.13;;
8312;SDS011;4194;43.408;24.626;2023-07-20T09:01:21;3.80;;;2.70;;
8312;SDS011;4194;43.408;24.626;2023-07-20T09:03:47;8.50;;;3.03;;
8312;SDS011;4194;43.408;24.626;2023-07-20T09:06:14;6.40;;;2.90;;
8312;SDS011;4194;43.408;24.626;2023-07-20T09:08:40;3.00;;;2.10;;
8312;SDS011;4194;43.408;24.626;2023-07-20T09:11:06;3.03;;;2.10;;
8312;SDS011;4194;43.408;24.626;2023-07-20T09:13:32;7.10;;;2.70;;
8312;SDS011;4194;43.408;24.626;2023-07-20T09:15:59;3.37;;;2.20;;
8312;SDS011;4194;43.408;24.626;2023-07-20T09:18:25;8.10;;;2.80;;
8312;SDS011;4194;43.408;24.626;2023-07-20T09:23:58;4.87;;;2.60;;
8312;SDS011;4194;43.408;24.626;2023-07-20T09:26:24;3.83;;;2.70;;
8312;SDS011;4194;43.408;24.626;2023-07-20T09:28:53;12.90;;;2.87;;
8312;SDS011;4194;43.408;24.626;2023-07-20T09:31:20;6.07;;;2.60;;
8312;SDS011;4194;43.408;24.626;2023-07-20T09:33:47;4.90;;;2.27;;
8312;SDS011;4194;43.408;24.626;2023-07-20T09:36:13;7.13;;;2.83;;
8312;SDS011;4194;43.408;24.626;2023-07-20T09:38:42;3.40;;;2.23;;
8312;SDS011;4194;43.408;24.626;2023-07-20T09:41:12;7.53;;;2.70;;
8312;SDS011;4194;43.408;24.626;2023-07-20T09:43:40;6.10;;;2.83;;
8312;SDS011;4194;43.408;24.626;2023-07-20T09:46:06;5.83;;;3.00;;
8312;SDS011;4194;43.408;24.626;2023-07-20T09:48:32;8.93;;;2.80;;
8312;SDS011;4194;43.408;24.626;2023-07-20T09:50:58;7.03;;;2.10;;
8312;SDS011;4194;43.408;24.626;2023-07-20T09:53:25;5.60;;;1.93;;
8312;SDS011;4194;43.408;24.626;2023-07-20T09:55:52;6.43;;;2.53;;
8312;SDS011;4194;43.408;24.626;2023-07-20T09:58:19;6.47;;;2.37;;
8312;SDS011;4194;43.408;24.626;2023-07-20T10:00:45;5.60;;;3.03;;
8312;SDS011;4194;43.408;24.626;2023-07-20T10:03:16;5.87;;;2.63;;
8312;SDS011;4194;43.408;24.626;2023-07-20T10:05:46;6.40;;;2.43;;
8312;SDS011;4194;43.408;24.626;2023-07-20T10:08:17;5.23;;;2.23;;
8312;SDS011;4194;43.408;24.626;2023-07-20T10:10:45;3.90;;;2.78;;
8312;SDS011;4194;43.408;24.626;2023-07-20T10:13:17;3.30;;;2.33;;
8312;SDS011;4194;43.408;24.626;2023-07-20T10:15:53;6.35;;;2.63;;
8312;SDS011;4194;43.408;24.626;2023-07-20T10:21:20;2.47;;;1.70;;
8312;SDS011;4194;43.408;24.626;2023-07-20T10:23:49;7.63;;;2.90;;
8312;SDS011;4194;43.408;24.626;2023-07-20T10:26:15;5.68;;;1.98;;
8312;SDS011;4194;43.408;24.626;2023-07-20T10:28:40;4.03;;;1.95;;
8312;SDS011;4194;43.408;24.626;2023-07-20T10:31:10;8.35;;;2.78;;
8312;SDS011;4194;43.408;24.626;2023-07-20T10:33:38;5.60;;;2.30;;
8312;SDS011;4194;43.408;24.626;2023-07-20T10:36:04;4.05;;;2.40;;
8312;SDS011;4194;43.408;24.626;2023-07-20T10:41:28;4.20;;;2.20;;
8312;SDS011;4194;43.408;24.626;2023-07-20T10:44:01;3.33;;;2.00;;
8312;SDS011;4194;43.408;24.626;2023-07-20T10:46:34;5.43;;;2.20;;
8312;SDS011;4194;43.408;24.626;2023-07-20T10:49:09;3.35;;;1.98;;
8312;SDS011;4194;43.408;24.626;2023-07-20T10:51:39;5.18;;;1.90;;
8312;SDS011;4194;43.408;24.626;2023-07-20T10:54:09;4.78;;;1.95;;
8312;SDS011;4194;43.408;24.626;2023-07-20T10:56:42;4.72;;;2.47;;
8312;SDS011;4194;43.408;24.626;2023-07-20T11:01:49;3.75;;;2.40;;
8312;SDS011;4194;43.408;24.626;2023-07-20T11:04:22;5.75;;;2.33;;
8312;SDS011;4194;43.408;24.626;2023-07-20T11:07:09;3.13;;;2.20;;
8312;SDS011;4194;43.408;24.626;2023-07-20T11:09:35;4.43;;;3.05;;
8312;SDS011;4194;43.408;24.626;2023-07-20T11:12:10;3.90;;;2.20;;
8312;SDS011;4194;43.408;24.626;2023-07-20T11:14:56;7.53;;;2.30;;
8312;SDS011;4194;43.408;24.626;2023-07-20T11:17:32;7.63;;;2.67;;
8312;SDS011;4194;43.408;24.626;2023-07-20T11:19:59;4.27;;;2.37;;
8312;SDS011;4194;43.408;24.626;2023-07-20T11:22:26;5.63;;;2.93;;
8312;SDS011;4194;43.408;24.626;2023-07-20T11:24:55;4.57;;;2.50;;
8312;SDS011;4194;43.408;24.626;2023-07-20T11:27:21;7.43;;;3.53;;
8312;SDS011;4194;43.408;24.626;2023-07-20T11:29:47;5.97;;;2.70;;
8312;SDS011;4194;43.408;24.626;2023-07-20T11:32:19;7.80;;;2.30;;
8312;SDS011;4194;43.408;24.626;2023-07-20T11:34:49;3.67;;;2.23;;
8312;SDS011;4194;43.408;24.626;2023-07-20T11:37:16;6.57;;;2.47;;
8312;SDS011;4194;43.408;24.626;2023-07-20T11:39:43;5.60;;;2.27;;
8312;SDS011;4194;43.408;24.626;2023-07-20T11:42:09;6.37;;;2.33;;
8312;SDS011;4194;43.408;24.626;2023-07-20T11:44:35;7.63;;;2.20;;
8312;SDS011;4194;43.408;24.626;2023-07-20T11:47:10;6.50;;;2.40;;
8312;SDS011;4194;43.408;24.626;2023-07-20T11:49:43;5.07;;;2.03;;
8312;SDS011;4194;43.408;24.626;2023-07-20T11:52:14;2.92;;;2.30;;
8312;SDS011;4194;43.408;24.626;2023-07-20T11:54:41;5.88;;;2.17;;
8312;SDS011;4194;43.408;24.626;2023-07-20T11:57:15;4.57;;;2.60;;
8312;SDS011;4194;43.408;24.626;2023-07-20T11:59:54;5.50;;;2.20;;
8312;SDS011;4194;43.408;24.626;2023-07-20T12:02:27;2.95;;;2.15;;
8312;SDS011;4194;43.408;24.626;2023-07-20T12:04:56;4.05;;;2.20;;
8312;SDS011;4194;43.408;24.626;2023-07-20T12:07:22;3.30;;;1.92;;
8312;SDS011;4194;43.408;24.626;2023-07-20T12:10:07;3.78;;;2.00;;
8312;SDS011;4194;43.408;24.626;2023-07-20T12:12:34;6.03;;;2.20;;
8312;SDS011;4194;43.408;24.626;2023-07-20T12:15:13;4.40;;;2.13;;
8312;SDS011;4194;43.408;24.626;2023-07-20T12:17:46;6.45;;;2.85;;
8312;SDS011;4194;43.408;24.626;2023-07-20T12:20:24;5.63;;;2.40;;
8312;SDS011;4194;43.408;24.626;2023-07-20T12:22:56;4.65;;;1.90;;
8312;SDS011;4194;43.408;24.626;2023-07-20T12:48:17;3.28;;;1.92;;
8312;SDS011;4194;43.408;24.626;2023-07-20T12:50:43;2.28;;;2.00;;
8312;SDS011;4194;43.408;24.626;2023-07-20T12:53:09;6.78;;;2.60;;
8312;SDS011;4194;43.408;24.626;2023-07-20T12:55:34;5.82;;;1.98;;
8312;SDS011;4194;43.408;24.626;2023-07-20T12:58:00;2.95;;;2.22;;
8312;SDS011;4194;43.408;24.626;2023-07-20T13:00:26;6.78;;;2.10;;
8312;SDS011;4194;43.408;24.626;2023-07-20T13:29:48;4.93;;;2.33;;
8312;SDS011;4194;43.408;24.626;2023-07-20T13:32:14;6.10;;;2.20;;
8312;SDS011;4194;43.408;24.626;2023-07-20T13:34:40;4.35;;;1.90;;
8312;SDS011;4194;43.408;24.626;2023-07-20T13:37:08;5.78;;;1.90;;
8312;SDS011;4194;43.408;24.626;2023-07-20T13:39:34;4.45;;;2.17;;
8312;SDS011;4194;43.408;24.626;2023-07-20T13:42:00;4.75;;;2.33;;
8312;SDS011;4194;43.408;24.626;2023-07-20T13:44:30;3.92;;;2.15;;
8312;SDS011;4194;43.408;24.626;2023-07-20T13:46:56;4.82;;;2.38;;
8312;SDS011;4194;43.408;24.626;2023-07-20T13:49:22;4.28;;;1.90;;
8312;SDS011;4194;43.408;24.626;2023-07-20T13:51:48;4.18;;;1.75;;
8312;SDS011;4194;43.408;24.626;2023-07-20T13:54:14;5.20;;;2.15;;
8312;SDS011;4194;43.408;24.626;2023-07-20T13:56:39;4.30;;;2.20;;
8312;SDS011;4194;43.408;24.626;2023-07-20T13:59:05;3.47;;;1.85;;
8312;SDS011;4194;43.408;24.626;2023-07-20T14:01:31;6.30;;;2.00;;
8312;SDS011;4194;43.408;24.626;2023-07-20T14:04:04;6.30;;;1.92;;
8312;SDS011;4194;43.408;24.626;2023-07-20T14:06:57;3.42;;;1.80;;
8312;SDS011;4194;43.408;24.626;2023-07-20T14:09:22;4.07;;;2.28;;
8312;SDS011;4194;43.408;24.626;2023-07-20T14:11:49;3.08;;;1.77;;
8312;SDS011;4194;43.408;24.626;2023-07-20T14:14:14;4.50;;;2.13;;
8312;SDS011;4194;43.408;24.626;2023-07-20T14:16:40;5.38;;;1.95;;
8312;SDS011;4194;43.408;24.626;2023-07-20T14:19:06;7.82;;;2.55;;
8312;SDS011;4194;43.408;24.626;2023-07-20T14:21:32;4.75;;;2.13;;
8312;SDS011;4194;43.408;24.626;2023-07-20T14:23:58;4.88;;;2.25;;
8312;SDS011;4194;43.408;24.626;2023-07-20T14:26:23;5.00;;;2.53;;
8312;SDS011;4194;43.408;24.626;2023-07-20T14:28:49;2.53;;;1.88;;
8312;SDS011;4194;43.408;24.626;2023-07-20T14:31:15;2.78;;;2.20;;
8312;SDS011;4194;43.408;24.626;2023-07-20T14:33:41;5.45;;;2.40;;
8312;SDS011;4194;43.408;24.626;2023-07-20T14:36:07;7.53;;;2.25;;
8312;SDS011;4194;43.408;24.626;2023-07-20T14:38:33;5.28;;;2.58;;
8312;SDS011;4194;43.408;24.626;2023-07-20T14:40:59;6.03;;;2.30;;
8312;SDS011;4194;43.408;24.626;2023-07-20T14:43:25;3.65;;;2.35;;
8312;SDS011;4194;43.408;24.626;2023-07-20T14:45:51;5.18;;;2.13;;
8312;SDS011;4194;43.408;24.626;2023-07-20T14:48:16;3.28;;;2.08;;
8312;SDS011;4194;43.408;24.626;2023-07-20T14:50:42;2.42;;;1.85;;
8312;SDS011;4194;43.408;24.626;2023-07-20T14:53:10;3.20;;;1.73;;
8312;SDS011;4194;43.408;24.626;2023-07-20T14:55:37;8.80;;;2.13;;
8312;SDS011;4194;43.408;24.626;2023-07-20T14:58:03;5.95;;;2.20;;
8312;SDS011;4194;43.408;24.626;2023-07-20T15:00:28;5.28;;;2.35;;
8312;SDS011;4194;43.408;24.626;2023-07-20T15:02:55;2.63;;;1.75;;
8312;SDS011;4194;43.408;24.626;2023-07-20T15:05:21;2.83;;;1.80;;
8312;SDS011;4194;43.408;24.626;2023-07-20T15:07:48;5.10;;;2.00;;
8312;SDS011;4194;43.408;24.626;2023-07-20T15:10:14;2.85;;;1.73;;
8312;SDS011;4194;43.408;24.626;2023-07-20T15:12:40;3.05;;;1.85;;
8312;SDS011;4194;43.408;24.626;2023-07-20T15:15:06;4.03;;;1.85;;
8312;SDS011;4194;43.408;24.626;2023-07-20T15:17:34;6.20;;;2.20;;
8312;SDS011;4194;43.408;24.626;2023-07-20T15:20:01;4.50;;;2.10;;
8312;SDS011;4194;43.408;24.626;2023-07-20T15:22:29;2.78;;;1.75;;
8312;SDS011;4194;43.408;24.626;2023-07-20T15:24:56;2.28;;;1.50;;
8312;SDS011;4194;43.408;24.626;2023-07-20T15:27:21;3.13;;;2.05;;
8312;SDS011;4194;43.408;24.626;2023-07-20T15:29:48;3.95;;;1.88;;
8312;SDS011;4194;43.408;24.626;2023-07-20T15:32:14;4.93;;;1.85;;
8312;SDS011;4194;43.408;24.626;2023-07-20T15:34:41;4.78;;;1.85;;
8312;SDS011;4194;43.408;24.626;2023-07-20T15:37:08;3.80;;;2.00;;
8312;SDS011;4194;43.408;24.626;2023-07-20T15:39:35;3.92;;;2.13;;
8312;SDS011;4194;43.408;24.626;2023-07-20T15:42:01;8.88;;;3.05;;
8312;SDS011;4194;43.408;24.626;2023-07-20T15:44:27;7.55;;;2.53;;
8312;SDS011;4194;43.408;24.626;2023-07-20T15:46:52;3.95;;;2.33;;
8312;SDS011;4194;43.408;24.626;2023-07-20T15:49:18;7.53;;;3.42;;
8312;SDS011;4194;43.408;24.626;2023-07-20T15:51:49;9.07;;;3.15;;
8312;SDS011;4194;43.408;24.626;2023-07-20T15:54:15;7.85;;;3.00;;
8312;SDS011;4194;43.408;24.626;2023-07-20T15:56:41;7.78;;;3.00;;
8312;SDS011;4194;43.408;24.626;2023-07-20T15:59:09;7.07;;;3.00;;
8312;SDS011;4194;43.408;24.626;2023-07-20T16:01:37;5.97;;;3.53;;
8312;SDS011;4194;43.408;24.626;2023-07-20T16:04:04;7.00;;;2.90;;
8312;SDS011;4194;43.408;24.626;2023-07-20T16:06:30;5.35;;;3.17;;
8312;SDS011;4194;43.408;24.626;2023-07-20T16:08:56;7.30;;;3.83;;
8312;SDS011;4194;43.408;24.626;2023-07-20T16:11:22;10.00;;;4.10;;
8312;SDS011;4194;43.408;24.626;2023-07-20T16:13:49;6.45;;;3.22;;
8312;SDS011;4194;43.408;24.626;2023-07-20T16:16:15;5.93;;;3.72;;
8312;SDS011;4194;43.408;24.626;2023-07-20T16:18:41;4.15;;;3.50;;
8312;SDS011;4194;43.408;24.626;2023-07-20T16:21:06;9.07;;;4.13;;
8312;SDS011;4194;43.408;24.626;2023-07-20T16:23:32;7.43;;;4.32;;
8312;SDS011;4194;43.408;24.626;2023-07-20T16:25:58;9.75;;;4.03;;
8312;SDS011;4194;43.408;24.626;2023-07-20T16:28:24;7.95;;;4.43;;
8312;SDS011;4194;43.408;24.626;2023-07-20T16:30:50;9.15;;;4.32;;
8312;SDS011;4194;43.408;24.626;2023-07-20T16:33:16;10.40;;;4.53;;
8312;SDS011;4194;43.408;24.626;2023-07-20T16:35:42;6.22;;;3.92;;
8312;SDS011;4194;43.408;24.626;2023-07-20T16:38:08;9.30;;;4.22;;
8312;SDS011;4194;43.408;24.626;2023-07-20T16:40:35;7.15;;;4.30;;
8312;SDS011;4194;43.408;24.626;2023-07-20T16:43:02;4.80;;;3.43;;
8312;SDS011;4194;43.408;24.626;2023-07-20T16:45:27;10.20;;;4.40;;
8312;SDS011;4194;43.408;24.626;2023-07-20T16:47:53;12.27;;;4.50;;
8312;SDS011;4194;43.408;24.626;2023-07-20T16:50:19;9.97;;;4.40;;
8312;SDS011;4194;43.408;24.626;2023-07-20T16:52:45;8.90;;;4.10;;
8312;SDS011;4194;43.408;24.626;2023-07-20T16:55:12;8.40;;;4.40;;
8312;SDS011;4194;43.408;24.626;2023-07-20T16:57:38;8.03;;;3.87;;
8312;SDS011;4194;43.408;24.626;2023-07-20T17:00:04;6.63;;;3.90;;
8312;SDS011;4194;43.408;24.626;2023-07-20T17:02:39;8.63;;;4.43;;
8312;SDS011;4194;43.408;24.626;2023-07-20T17:05:05;7.97;;;4.13;;
8312;SDS011;4194;43.408;24.626;2023-07-20T17:07:37;7.70;;;3.90;;
8312;SDS011;4194;43.408;24.626;2023-07-20T17:10:04;8.33;;;3.63;;
8312;SDS011;4194;43.408;24.626;2023-07-20T17:12:32;12.40;;;3.83;;
8312;SDS011;4194;43.408;24.626;2023-07-20T17:14:58;9.13;;;4.27;;
8312;SDS011;4194;43.408;24.626;2023-07-20T17:17:24;7.57;;;4.23;;
8312;SDS011;4194;43.408;24.626;2023-07-20T17:19:49;6.87;;;3.97;;
8312;SDS011;4194;43.408;24.626;2023-07-20T17:22:15;8.20;;;3.83;;
8312;SDS011;4194;43.408;24.626;2023-07-20T17:24:41;8.67;;;4.13;;
8312;SDS011;4194;43.408;24.626;2023-07-20T17:27:07;5.77;;;3.83;;
8312;SDS011;4194;43.408;24.626;2023-07-20T17:29:33;8.53;;;3.93;;
8312;SDS011;4194;43.408;24.626;2023-07-20T17:31:58;10.07;;;3.70;;
8312;SDS011;4194;43.408;24.626;2023-07-20T17:34:24;7.10;;;4.20;;
8312;SDS011;4194;43.408;24.626;2023-07-20T17:36:49;7.33;;;3.97;;
8312;SDS011;4194;43.408;24.626;2023-07-20T17:39:15;7.43;;;3.90;;
8312;SDS011;4194;43.408;24.626;2023-07-20T17:41:41;9.57;;;4.17;;
8312;SDS011;4194;43.408;24.626;2023-07-20T17:44:07;10.67;;;4.20;;
8312;SDS011;4194;43.408;24.626;2023-07-20T17:46:34;12.20;;;4.33;;
8312;SDS011;4194;43.408;24.626;2023-07-20T17:48:59;9.73;;;4.00;;
8312;SDS011;4194;43.408;24.626;2023-07-20T17:51:27;8.93;;;3.83;;
8312;SDS011;4194;43.408;24.626;2023-07-20T17:53:54;9.17;;;4.00;;
8312;SDS011;4194;43.408;24.626;2023-07-20T17:56:19;10.47;;;5.47;;
8312;SDS011;4194;43.408;24.626;2023-07-20T17:58:45;16.60;;;5.43;;
8312;SDS011;4194;43.408;24.626;2023-07-20T18:01:11;10.30;;;6.37;;
8312;SDS011;4194;43.408;24.626;2023-07-20T18:03:37;11.43;;;5.87;;
8312;SDS011;4194;43.408;24.626;2023-07-20T18:06:04;10.50;;;5.37;;
8312;SDS011;4194;43.408;24.626;2023-07-20T18:08:31;6.50;;;4.40;;
8312;SDS011;4194;43.408;24.626;2023-07-20T18:11:04;8.13;;;4.10;;
8312;SDS011;4194;43.408;24.626;2023-07-20T18:13:30;9.23;;;4.40;;
8312;SDS011;4194;43.408;24.626;2023-07-20T18:15:56;8.10;;;4.37;;
8312;SDS011;4194;43.408;24.626;2023-07-20T18:18:22;10.30;;;4.57;;
8312;SDS011;4194;43.408;24.626;2023-07-20T18:20:48;7.90;;;4.80;;
8312;SDS011;4194;43.408;24.626;2023-07-20T18:23:13;6.60;;;4.10;;
8312;SDS011;4194;43.408;24.626;2023-07-20T18:25:41;8.97;;;4.03;;
8312;SDS011;4194;43.408;24.626;2023-07-20T18:28:07;12.17;;;5.20;;
8312;SDS011;4194;43.408;24.626;2023-07-20T18:30:33;9.73;;;4.60;;
8312;SDS011;4194;43.408;24.626;2023-07-20T18:33:02;12.37;;;4.00;;
8312;SDS011;4194;43.408;24.626;2023-07-20T18:35:28;10.10;;;4.60;;
8312;SDS011;4194;43.408;24.626;2023-07-20T18:37:55;10.13;;;4.77;;
8312;SDS011;4194;43.408;24.626;2023-07-20T18:40:21;10.83;;;4.83;;
8312;SDS011;4194;43.408;24.626;2023-07-20T18:42:47;9.63;;;4.33;;
8312;SDS011;4194;43.408;24.626;2023-07-20T18:45:13;8.23;;;4.33;;
8312;SDS011;4194;43.408;24.626;2023-07-20T18:47:39;8.10;;;4.33;;
8312;SDS011;4194;43.408;24.626;2023-07-20T18:50:05;9.67;;;5.03;;
8312;SDS011;4194;43.408;24.626;2023-07-20T18:52:31;6.93;;;4.03;;
8312;SDS011;4194;43.408;24.626;2023-07-20T18:54:57;12.73;;;4.53;;
8312;SDS011;4194;43.408;24.626;2023-07-20T18:57:23;7.50;;;4.70;;
8312;SDS011;4194;43.408;24.626;2023-07-20T18:59:48;7.93;;;4.80;;
8312;SDS011;4194;43.408;24.626;2023-07-20T19:02:14;9.43;;;5.00;;
8312;SDS011;4194;43.408;24.626;2023-07-20T19:04:40;8.50;;;4.63;;
8312;SDS011;4194;43.408;24.626;2023-07-20T19:07:07;11.67;;;5.27;;
8312;SDS011;4194;43.408;24.626;2023-07-20T19:09:35;7.90;;;4.90;;
8312;SDS011;4194;43.408;24.626;2023-07-20T19:12:01;11.63;;;4.43;;
8312;SDS011;4194;43.408;24.626;2023-07-20T19:14:27;8.87;;;4.17;;
8312;SDS011;4194;43.408;24.626;2023-07-20T19:16:52;11.60;;;5.00;;
8312;SDS011;4194;43.408;24.626;2023-07-20T19:19:20;7.83;;;4.60;;
8312;SDS011;4194;43.408;24.626;2023-07-20T19:21:46;10.70;;;4.53;;